createdAt,value
2022-07-31T00:06:46.422Z,64.97
2022-07-31T00:17:08.014Z,65.39
2022-07-31T00:27:29.652Z,62.70
2022-07-31T00:37:54.809Z,61.01
2022-07-31T00:48:23.892Z,61.97
2022-07-31T00:58:45.432Z,63.74
2022-07-31T01:09:07.011Z,63.90
2022-07-31T01:19:37.886Z,62.96
2022-07-31T01:30:03.550Z,63.48
2022-07-31T01:40:35.592Z,64.29
2022-07-31T01:50:58.906Z,63.46
2022-07-31T02:01:27.023Z,64.04
2022-07-31T02:11:54.440Z,65.22
2022-07-31T02:22:16.836Z,65.35
2022-07-31T02:32:39.327Z,65.46
2022-07-31T02:43:01.100Z,65.24
2022-07-31T02:53:24.758Z,67.64
2022-07-31T03:03:46.290Z,67.07
2022-07-31T03:14:10.568Z,67.99
2022-07-31T03:24:32.223Z,68.88
2022-07-31T03:34:56.959Z,68.46
2022-07-31T03:45:20.888Z,68.53
2022-07-31T03:55:44.055Z,69.22
2022-07-31T04:06:05.635Z,69.25
2022-07-31T04:16:27.179Z,71.13
2022-07-31T04:26:50.510Z,72.38
2022-07-31T04:37:12.093Z,72.31
2022-07-31T04:47:33.588Z,71.37
2022-07-31T04:57:55.118Z,68.42
2022-07-31T05:08:16.677Z,67.87
2022-07-31T05:18:38.309Z,69.20
2022-07-31T05:29:00.188Z,69.40
2022-07-31T05:39:21.756Z,69.95
2022-07-31T05:49:43.397Z,68.36
2022-07-31T06:00:05.690Z,67.93
2022-07-31T06:10:28.285Z,66.57
2022-07-31T06:20:49.893Z,65.77
2022-07-31T06:31:21.664Z,65.63
2022-07-31T06:41:49.294Z,65.78
2022-07-31T06:52:10.924Z,65.77
2022-07-31T07:02:32.475Z,66.18
2022-07-31T07:12:54.326Z,66.15
2022-07-31T07:23:15.935Z,66.27
2022-07-31T07:33:41.263Z,65.88
2022-07-31T07:44:05.135Z,65.74
2022-07-31T07:54:30.027Z,65.00
2022-07-31T08:04:52.016Z,65.14
2022-07-31T08:15:13.568Z,64.71
2022-07-31T08:25:35.104Z,66.28
2022-07-31T08:35:59.056Z,65.53
2022-07-31T08:46:22.138Z,69.13
2022-07-31T08:56:44.015Z,69.30
2022-07-31T09:07:06.210Z,66.22
2022-07-31T09:17:53.711Z,65.91
2022-07-31T09:28:15.917Z,62.75
2022-07-31T09:38:43.431Z,60.47
2022-07-31T09:49:05.196Z,60.41
2022-07-31T09:59:26.865Z,60.42
2022-07-31T10:09:48.727Z,59.80
2022-07-31T10:20:17.384Z,58.04
2022-07-31T10:30:39.119Z,59.01
2022-07-31T10:41:17.345Z,58.21
2022-07-31T10:51:50.107Z,57.75
2022-07-31T11:02:11.804Z,54.92
2022-07-31T11:12:33.444Z,56.20
2022-07-31T11:23:06.422Z,58.07
2022-07-31T11:33:42.170Z,60.70
2022-07-31T11:44:04.973Z,61.23
2022-07-31T11:54:26.744Z,63.07
2022-07-31T12:04:49.227Z,70.90
2022-07-31T12:15:18.863Z,71.94
2022-07-31T12:25:42.230Z,77.88
2022-07-31T12:36:12.309Z,76.84
2022-07-31T12:46:36.749Z,78.18
2022-07-31T12:56:58.279Z,81.21
2022-07-31T13:07:19.892Z,85.75
2022-07-31T13:17:47.792Z,90.13
2022-07-31T13:28:12.373Z,90.79
2022-07-31T13:38:34.059Z,90.38
2022-07-31T13:48:59.118Z,90.73
2022-07-31T13:59:21.535Z,91.51
2022-07-31T14:09:51.473Z,98.71
2022-07-31T14:20:17.183Z,100.00
2022-07-31T14:30:45.592Z,100.00
2022-07-31T14:41:08.037Z,100.00
2022-07-31T14:51:29.628Z,100.00
2022-07-31T15:01:51.150Z,100.00
2022-07-31T15:12:16.762Z,100.00
2022-07-31T15:22:38.374Z,100.00
2022-07-31T15:33:02.172Z,100.00
2022-07-31T15:43:23.714Z,100.00
2022-07-31T15:53:45.211Z,100.00
2022-07-31T16:04:16.609Z,100.00
2022-07-31T16:14:38.579Z,100.00
2022-07-31T16:25:00.331Z,100.00
2022-07-31T16:35:22.553Z,100.00
2022-07-31T16:45:44.137Z,100.00
2022-07-31T16:56:06.462Z,100.00
2022-07-31T17:06:36.346Z,100.00
2022-07-31T17:16:59.276Z,100.00
2022-07-31T17:27:22.511Z,100.00
2022-07-31T17:37:45.178Z,100.00
2022-07-31T17:48:07.813Z,100.00
2022-07-31T17:58:29.370Z,100.00
2022-07-31T18:08:51.202Z,100.00
2022-07-31T18:19:13.614Z,100.00
2022-07-31T18:29:35.176Z,100.00
2022-07-31T18:39:59.581Z,100.00
2022-07-31T18:51:00.587Z,100.00
2022-07-31T19:01:03.496Z,100.00
2022-07-31T19:11:25.148Z,100.00
2022-07-31T19:21:46.724Z,100.00
2022-07-31T19:32:08.613Z,100.00
2022-07-31T19:42:30.317Z,100.00
2022-07-31T19:52:52.626Z,100.00
2022-07-31T20:03:14.308Z,100.00
2022-07-31T20:13:38.526Z,100.00
2022-07-31T20:24:01.421Z,100.00
2022-07-31T20:34:23.632Z,100.00
2022-07-31T20:44:45.321Z,100.00
2022-07-31T20:55:07.070Z,100.00
2022-07-31T21:05:30.646Z,100.00
2022-07-31T21:15:53.198Z,100.00
2022-07-31T21:26:15.582Z,100.00
2022-07-31T21:36:37.430Z,100.00
2022-07-31T21:47:01.478Z,100.00
2022-07-31T21:57:25.236Z,100.00
2022-07-31T22:07:49.608Z,100.00
2022-07-31T22:18:11.374Z,100.00
2022-07-31T22:28:33.070Z,100.00
2022-07-31T22:38:55.042Z,100.00
2022-07-31T22:49:18.106Z,100.00
2022-07-31T22:59:40.084Z,100.00
2022-07-31T23:10:02.414Z,100.00
2022-07-31T23:20:23.948Z,100.00
2022-07-31T23:30:45.494Z,100.00
2022-07-31T23:41:07.457Z,100.00
2022-07-31T23:51:29.054Z,100.00
